createdAt,value
2019-04-07T00:03:43.822Z,42.10
2019-04-07T00:07:52.859Z,42.20
2019-04-07T00:12:01.977Z,40.70
2019-04-07T00:16:10.625Z,45.00
2019-04-07T00:20:19.819Z,43.77
2019-04-07T00:24:28.668Z,40.73
2019-04-07T00:28:37.180Z,44.40
2019-04-07T00:32:45.623Z,42.53
2019-04-07T00:36:54.124Z,40.27
2019-04-07T00:41:02.984Z,43.37
2019-04-07T00:45:11.751Z,43.33
2019-04-07T00:49:20.609Z,41.17
2019-04-07T00:53:29.944Z,41.30
2019-04-07T00:57:38.885Z,40.73
2019-04-07T01:01:47.327Z,40.50
2019-04-07T01:05:56.048Z,41.23
2019-04-07T01:10:06.170Z,40.40
2019-04-07T01:14:14.669Z,39.00
2019-04-07T01:18:23.439Z,41.90
2019-04-07T01:22:33.316Z,43.20
2019-04-07T01:26:42.085Z,39.70
2019-04-07T01:30:51.606Z,39.90
2019-04-07T01:35:00.304Z,39.30
2019-04-07T01:39:10.499Z,39.83
2019-04-07T01:43:20.617Z,42.93
2019-04-07T01:47:39.681Z,41.17
2019-04-07T01:51:50.394Z,37.93
2019-04-07T01:56:09.515Z,42.30
2019-04-07T02:00:22.662Z,42.47
2019-04-07T02:04:42.503Z,42.30
2019-04-07T02:09:11.066Z,41.30
2019-04-07T02:13:24.030Z,39.67
2019-04-07T02:17:37.237Z,39.53
2019-04-07T02:22:00.177Z,37.87
2019-04-07T02:26:11.430Z,39.77
2019-04-07T02:30:37.338Z,41.27
2019-04-07T02:34:47.633Z,38.10
2019-04-07T02:39:04.592Z,39.60
2019-04-07T02:43:15.880Z,37.40
2019-04-07T02:47:35.343Z,41.97
2019-04-07T02:52:02.457Z,38.50
2019-04-07T02:56:29.365Z,40.10
2019-04-07T03:00:55.924Z,40.90
2019-04-07T03:05:26.678Z,39.87
2019-04-07T03:09:43.949Z,39.83
2019-04-07T03:13:54.382Z,36.83
2019-04-07T03:18:04.842Z,38.43
2019-04-07T03:22:15.417Z,38.47
2019-04-07T03:26:42.671Z,37.03
2019-04-07T03:31:12.848Z,38.07
2019-04-07T03:35:34.093Z,37.67
2019-04-07T03:39:46.386Z,33.83
2019-04-07T03:43:59.319Z,37.83
2019-04-07T03:48:26.404Z,39.13
2019-04-07T03:52:51.822Z,38.47
2019-04-07T03:57:04.872Z,36.90
2019-04-07T04:01:15.738Z,35.73
2019-04-07T04:05:32.782Z,36.43
2019-04-07T04:09:44.093Z,37.17
2019-04-07T04:14:09.745Z,38.70
2019-04-07T04:18:18.441Z,34.93
2019-04-07T04:22:26.961Z,37.10
2019-04-07T04:26:35.828Z,39.30
2019-04-07T04:30:44.751Z,37.23
2019-04-07T04:34:54.544Z,36.57
2019-04-07T04:39:04.877Z,36.33
2019-04-07T04:43:32.684Z,37.20
2019-04-07T04:47:41.156Z,37.70
2019-04-07T04:51:50.239Z,35.23
2019-04-07T04:55:59.033Z,36.50
2019-04-07T05:00:08.586Z,40.07
2019-04-07T05:04:17.434Z,37.50
2019-04-07T05:08:27.045Z,38.97
2019-04-07T05:12:35.912Z,33.13
2019-04-07T05:16:44.762Z,35.80
2019-04-07T05:20:54.216Z,33.83
2019-04-07T05:25:02.715Z,34.87
2019-04-07T05:29:11.194Z,39.10
2019-04-07T05:33:20.062Z,36.30
2019-04-07T05:37:28.654Z,36.83
2019-04-07T05:41:37.231Z,36.73
2019-04-07T05:45:46.368Z,38.17
2019-04-07T05:49:57.415Z,35.77
2019-04-07T05:54:05.131Z,35.10
2019-04-07T05:58:15.445Z,37.43
2019-04-07T06:02:24.425Z,39.37
2019-04-07T06:06:33.059Z,41.80
2019-04-07T06:10:41.522Z,41.87
2019-04-07T06:14:50.015Z,42.10
2019-04-07T06:18:58.896Z,40.10
2019-04-07T06:23:07.450Z,41.20
2019-04-07T06:27:16.970Z,40.00
2019-04-07T06:31:27.107Z,41.25
2019-04-07T06:35:36.612Z,41.20
2019-04-07T06:39:47.051Z,42.33
2019-04-07T06:44:08.318Z,45.67
2019-04-07T06:48:09.033Z,44.30
2019-04-07T06:52:28.574Z,45.50
2019-04-07T06:56:39.133Z,45.80
2019-04-07T07:00:49.363Z,46.57
2019-04-07T07:05:07.042Z,43.77
2019-04-07T07:09:36.247Z,43.60
2019-04-07T07:13:50.892Z,46.00
2019-04-07T07:18:10.236Z,48.40
2019-04-07T07:22:20.783Z,43.93
2019-04-07T07:26:32.814Z,45.53
2019-04-07T07:30:39.503Z,41.87
2019-04-07T07:34:48.073Z,42.50
2019-04-07T07:39:01.680Z,42.83
2019-04-07T07:43:07.105Z,39.23
2019-04-07T07:47:17.615Z,43.17
2019-04-07T07:51:26.645Z,39.40
2019-04-07T07:55:37.547Z,40.43
2019-04-07T07:59:46.359Z,38.10
2019-04-07T08:03:55.720Z,37.23
2019-04-07T08:08:04.806Z,37.70
2019-04-07T08:12:13.292Z,36.80
2019-04-07T08:16:21.820Z,32.77
2019-04-07T08:20:30.658Z,36.60
2019-04-07T08:24:39.215Z,35.03
2019-04-07T08:28:48.184Z,33.83
2019-04-07T08:32:59.172Z,33.30
2019-04-07T08:37:07.084Z,34.03
2019-04-07T08:41:16.667Z,33.67
2019-04-07T08:45:26.713Z,30.73
2019-04-07T08:49:35.818Z,30.13
2019-04-07T08:53:46.063Z,30.27
2019-04-07T08:57:55.042Z,26.67
2019-04-07T09:02:04.266Z,23.03
2019-04-07T09:06:13.038Z,23.23
2019-04-07T09:10:23.202Z,21.80
2019-04-07T09:14:31.788Z,22.10
2019-04-07T09:19:02.541Z,22.43
2019-04-07T09:23:44.722Z,17.87
2019-04-07T09:28:11.819Z,18.40
2019-04-07T09:32:22.571Z,15.70
2019-04-07T09:36:51.127Z,16.77
2019-04-07T09:41:01.634Z,16.63
2019-04-07T09:45:25.375Z,15.67
2019-04-07T09:49:46.165Z,15.27
2019-04-07T09:53:53.450Z,12.93
2019-04-07T09:58:11.561Z,14.23
2019-04-07T10:02:31.997Z,11.63
2019-04-07T10:06:51.323Z,12.90
2019-04-07T10:11:01.403Z,13.37
2019-04-07T10:15:15.392Z,14.47
2019-04-07T10:19:25.811Z,12.63
2019-04-07T10:23:52.335Z,13.87
2019-04-07T10:28:10.563Z,14.80
2019-04-07T10:32:28.108Z,12.97
2019-04-07T10:36:42.336Z,14.20
2019-04-07T10:41:09.155Z,15.70
2019-04-07T10:45:19.275Z,14.57
2019-04-07T10:49:57.506Z,13.30
2019-04-07T10:54:10.076Z,13.57
2019-04-07T10:58:23.054Z,13.07
2019-04-07T11:02:39.347Z,13.13
2019-04-07T11:06:56.307Z,13.63
2019-04-07T11:11:12.232Z,12.30
2019-04-07T11:15:39.348Z,14.40
2019-04-07T11:19:50.094Z,12.37
2019-04-07T11:24:03.994Z,12.67
2019-04-07T11:28:29.524Z,11.33
2019-04-07T11:32:49.720Z,11.80
2019-04-07T11:37:00.577Z,12.80
2019-04-07T11:41:17.045Z,11.40
2019-04-07T11:45:33.452Z,12.20
2019-04-07T11:50:00.311Z,11.97
2019-04-07T11:54:10.516Z,11.50
2019-04-07T11:58:28.993Z,11.83
2019-04-07T12:02:36.391Z,11.70
2019-04-07T12:07:02.453Z,13.60
2019-04-07T12:15:40.919Z,12.43
2019-04-07T12:19:54.542Z,11.80
2019-04-07T12:24:06.021Z,10.70
2019-04-07T12:28:21.882Z,12.57
2019-04-07T12:32:35.710Z,13.40
2019-04-07T12:41:24.469Z,10.03
2019-04-07T12:45:38.405Z,11.93
2019-04-07T12:49:48.767Z,12.23
2019-04-07T12:54:00.216Z,11.03
2019-04-07T12:58:26.664Z,11.95
2019-04-07T13:07:19.766Z,12.90
2019-04-07T13:11:35.450Z,13.33
2019-04-07T13:15:45.530Z,13.50
2019-04-07T13:20:02.985Z,12.43
2019-04-07T13:24:30.204Z,13.23
2019-04-07T13:28:37.134Z,13.60
2019-04-07T13:32:55.001Z,12.80
2019-04-07T13:37:08.197Z,13.83
2019-04-07T13:41:22.025Z,13.80
2019-04-07T13:45:33.003Z,13.20
2019-04-07T13:50:01.256Z,11.70
2019-04-07T13:54:21.092Z,12.97
2019-04-07T13:58:35.660Z,13.60
2019-04-07T14:03:02.081Z,14.60
2019-04-07T14:07:21.909Z,15.13
2019-04-07T14:12:01.560Z,13.60
2019-04-07T14:16:01.453Z,14.23
2019-04-07T14:20:29.221Z,13.77
2019-04-07T14:24:40.632Z,14.10
2019-04-07T14:29:01.896Z,14.87
2019-04-07T14:33:17.994Z,14.20
2019-04-07T14:37:53.407Z,14.50
2019-04-07T14:42:07.285Z,13.83
2019-04-07T14:46:16.162Z,14.80
2019-04-07T14:50:42.914Z,13.80
2019-04-07T14:54:57.008Z,16.60
2019-04-07T14:59:21.937Z,15.47
2019-04-07T15:03:30.715Z,15.63
2019-04-07T15:07:59.626Z,14.83
2019-04-07T15:12:15.979Z,15.43
2019-04-07T15:16:18.533Z,13.40
2019-04-07T15:20:28.113Z,14.03
2019-04-07T15:24:37.618Z,13.50
2019-04-07T15:28:47.029Z,14.57
2019-04-07T15:32:58.601Z,15.30
2019-04-07T15:37:06.792Z,15.57
2019-04-07T15:41:17.878Z,15.10
2019-04-07T15:45:26.602Z,13.83
2019-04-07T15:49:35.252Z,15.83
2019-04-07T15:53:46.513Z,14.17
2019-04-07T15:57:56.974Z,14.83
2019-04-07T16:02:04.482Z,14.33
2019-04-07T16:06:15.297Z,14.50
2019-04-07T16:10:26.187Z,14.47
2019-04-07T16:14:35.182Z,14.63
2019-04-07T16:18:45.315Z,14.87
2019-04-07T16:22:53.901Z,13.80
2019-04-07T16:27:05.440Z,13.90
2019-04-07T16:31:13.551Z,14.40
2019-04-07T16:35:22.466Z,14.73
2019-04-07T16:39:33.539Z,15.80
2019-04-07T16:43:42.038Z,15.30
2019-04-07T16:47:51.158Z,14.70
2019-04-07T16:52:01.952Z,15.70
2019-04-07T16:56:09.988Z,15.00
2019-04-07T17:00:19.138Z,14.83
2019-04-07T17:04:27.714Z,15.00
2019-04-07T17:08:36.188Z,14.60
2019-04-07T17:12:44.675Z,15.03
2019-04-07T17:16:53.654Z,17.13
2019-04-07T17:21:02.339Z,14.07
2019-04-07T17:25:11.166Z,15.87
2019-04-07T17:29:22.117Z,15.70
2019-04-07T17:33:35.161Z,14.77
2019-04-07T17:37:42.576Z,15.37
2019-04-07T17:41:51.921Z,15.40
2019-04-07T17:46:19.157Z,15.90
2019-04-07T17:50:42.107Z,14.63
2019-04-07T17:55:10.853Z,16.17
2019-04-07T17:59:26.629Z,15.27
2019-04-07T18:03:42.825Z,15.70
2019-04-07T18:07:54.346Z,15.13
2019-04-07T18:12:21.854Z,15.40
2019-04-07T18:16:32.227Z,16.87
2019-04-07T18:20:59.618Z,16.80
2019-04-07T18:25:46.449Z,16.60
2019-04-07T18:30:20.565Z,15.30
2019-04-07T18:35:04.392Z,17.70
2019-04-07T18:39:18.277Z,15.70
2019-04-07T18:43:57.815Z,16.37
2019-04-07T18:48:17.124Z,16.42
2019-04-07T18:52:53.227Z,16.93
2019-04-07T18:57:21.587Z,18.03
2019-04-07T19:01:53.424Z,16.33
2019-04-07T19:05:59.421Z,18.87
2019-04-07T19:10:18.316Z,17.43
2019-04-07T19:14:43.790Z,20.10
2019-04-07T19:18:51.951Z,19.07
2019-04-07T19:23:04.871Z,19.83
2019-04-07T19:27:31.510Z,19.10
2019-04-07T19:31:57.546Z,19.67
2019-04-07T19:36:16.784Z,20.33
2019-04-07T19:40:29.910Z,20.53
2019-04-07T19:44:50.083Z,18.60
2019-04-07T19:48:59.000Z,20.00
2019-04-07T19:53:18.115Z,19.23
2019-04-07T19:57:37.247Z,19.83
2019-04-07T20:02:05.621Z,21.80
2019-04-07T20:06:15.766Z,20.90
2019-04-07T20:10:28.360Z,21.23
2019-04-07T20:15:00.550Z,21.90
2019-04-07T20:19:19.175Z,20.87
2019-04-07T20:23:33.173Z,21.10
2019-04-07T20:27:47.014Z,19.40
2019-04-07T20:32:00.431Z,20.63
2019-04-07T20:36:27.756Z,19.60
2019-04-07T20:40:46.941Z,20.53
2019-04-07T20:49:49.140Z,20.23
2019-04-07T20:54:02.165Z,19.30
2019-04-07T20:58:41.350Z,20.93
2019-04-07T21:03:09.126Z,20.10
2019-04-07T21:07:24.873Z,19.50
2019-04-07T21:11:42.894Z,20.07
2019-04-07T21:16:01.939Z,19.77
2019-04-07T21:20:14.616Z,19.90
2019-04-07T21:24:43.457Z,17.97
2019-04-07T21:28:54.543Z,20.83
2019-04-07T21:33:22.399Z,20.00
2019-04-07T21:37:40.741Z,20.10
2019-04-07T21:42:03.069Z,21.90
2019-04-07T21:46:21.048Z,20.30
2019-04-07T21:50:41.961Z,20.67
2019-04-07T21:54:55.589Z,20.17
2019-04-07T22:03:46.185Z,20.77
2019-04-07T22:07:57.139Z,20.50
2019-04-07T22:12:06.395Z,21.80
2019-04-07T22:16:15.020Z,21.10
2019-04-07T22:20:23.604Z,20.53
2019-04-07T22:24:35.626Z,21.47
2019-04-07T22:28:42.751Z,21.73
2019-04-07T22:32:52.746Z,21.17
2019-04-07T22:37:02.554Z,21.13
2019-04-07T22:41:11.273Z,22.10
2019-04-07T22:45:25.281Z,23.20
2019-04-07T22:49:32.228Z,21.70
2019-04-07T22:53:41.248Z,21.87
2019-04-07T22:57:49.896Z,23.37
2019-04-07T23:01:58.395Z,22.37
2019-04-07T23:06:06.845Z,22.67
2019-04-07T23:10:16.148Z,23.13
2019-04-07T23:14:25.394Z,23.30
2019-04-07T23:18:34.963Z,24.83
2019-04-07T23:22:44.507Z,25.03
2019-04-07T23:26:53.183Z,24.87
2019-04-07T23:31:01.683Z,24.27
2019-04-07T23:35:10.462Z,22.33
2019-04-07T23:39:19.551Z,24.17
2019-04-07T23:43:29.151Z,24.83
2019-04-07T23:47:38.647Z,25.80
2019-04-07T23:51:47.616Z,26.90
2019-04-07T23:55:56.163Z,26.33
